Time;durP1;ratioP1;P1;durP2;ratioP2;P2;SDS_P1;SDS_P2;PMS_P1;PMS_P2;Temp;Humidity;BMP_temperature;BMP_pressure;BME280_temperature;BME280_humidity;BME280_pressure;Samples;Min_cycle;Max_cycle;Signal;HPM_P1;HPM_P2
2023/10/28 00:00:57;;;;;;;4.55;1.67;;;;;;;;;;5062576;28;20051;-86
2023/10/28 00:03:43;;;;;;;1.88;1.00;;;;;;;;;;5069208;28;20054;-86
2023/10/28 00:06:28;;;;;;;0.63;0.60;;;;;;;;;;5074358;28;20146;-86
2023/10/28 00:09:15;;;;;;;0.98;0.65;;;;;;;;;;5069580;28;20028;-85
2023/10/28 00:12:00;;;;;;;1.50;0.77;;;;;;;;;;5064299;28;20040;-86
2023/10/28 00:14:45;;;;;;;0.57;0.50;;;;;;;;;;5072601;28;20440;-87
2023/10/28 00:17:30;;;;;;;1.13;0.80;;;;;;;;;;5067256;28;20789;-86
2023/10/28 00:20:19;;;;;;;0.60;0.60;;;;;;;;;;5069756;28;20054;-86
2023/10/28 00:23:04;;;;;;;3.45;0.98;;;;;;;;;;5061475;28;20111;-87
2023/10/28 00:25:50;;;;;;;2.88;0.80;;;;;;;;;;5071636;28;20541;-86
2023/10/28 00:28:36;;;;;;;1.27;0.80;;;;;;;;;;5068062;28;20020;-87
2023/10/28 00:31:21;;;;;;;0.95;0.60;;;;;;;;;;5063708;28;20024;-86
2023/10/28 00:34:06;;;;;;;6.38;0.88;;;;;;;;;;5066785;28;20035;-86
2023/10/28 00:36:52;;;;;;;0.82;0.60;;;;;;;;;;5067487;28;20473;-86
2023/10/28 00:39:37;;;;;;;1.63;0.90;;;;;;;;;;5069040;28;20041;-86
2023/10/28 00:42:23;;;;;;;0.93;0.63;;;;;;;;;;5069138;28;20020;-85
2023/10/28 00:45:11;;;;;;;2.35;0.73;;;;;;;;;;5070081;28;20028;-85
2023/10/28 00:47:57;;;;;;;1.67;0.70;;;;;;;;;;5068283;28;20051;-86
2023/10/28 00:50:43;;;;;;;0.70;0.70;;;;;;;;;;5070828;28;20032;-86
2023/10/28 00:53:30;;;;;;;2.50;1.17;;;;;;;;;;5070610;28;20032;-86
2023/10/28 00:56:18;;;;;;;2.83;0.98;;;;;;;;;;5072015;28;20063;-86
2023/10/28 00:59:03;;;;;;;1.85;1.00;;;;;;;;;;5059396;28;20082;-87
2023/10/28 01:01:49;;;;;;;1.92;0.65;;;;;;;;;;5069649;28;20038;-87
2023/10/28 01:04:38;;;;;;;1.45;0.70;;;;;;;;;;5073560;28;20351;-85
2023/10/28 01:07:24;;;;;;;0.65;0.50;;;;;;;;;;5065203;28;20024;-87
2023/10/28 01:10:10;;;;;;;0.80;0.63;;;;;;;;;;5064553;28;20414;-86
2023/10/28 01:12:55;;;;;;;2.25;0.90;;;;;;;;;;5072789;28;20032;-87
2023/10/28 01:15:40;;;;;;;1.25;0.70;;;;;;;;;;5067465;28;20082;-86
2023/10/28 01:18:26;;;;;;;1.92;0.98;;;;;;;;;;5056996;28;20028;-86
2023/10/28 01:21:11;;;;;;;2.15;0.90;;;;;;;;;;5068850;28;20056;-86
2023/10/28 01:23:57;;;;;;;0.63;0.63;;;;;;;;;;5072773;28;20074;-86
2023/10/28 01:26:42;;;;;;;3.33;1.45;;;;;;;;;;5073886;28;20352;-86
2023/10/28 01:29:28;;;;;;;3.05;1.02;;;;;;;;;;5073539;28;20052;-86
2023/10/28 01:32:14;;;;;;;1.60;0.88;;;;;;;;;;5069238;28;20088;-85
2023/10/28 01:35:00;;;;;;;0.85;0.70;;;;;;;;;;5074998;28;20060;-86
2023/10/28 01:37:45;;;;;;;1.17;0.82;;;;;;;;;;5076203;28;20139;-86
2023/10/28 01:40:30;;;;;;;3.63;0.90;;;;;;;;;;5077631;28;20510;-86
2023/10/28 01:43:16;;;;;;;3.78;0.90;;;;;;;;;;5059257;28;20044;-86
2023/10/28 01:46:01;;;;;;;2.97;0.85;;;;;;;;;;5074954;28;20031;-87
2023/10/28 01:48:46;;;;;;;2.38;1.00;;;;;;;;;;5076418;28;20112;-87
2023/10/28 01:51:31;;;;;;;1.77;0.70;;;;;;;;;;5077093;28;20027;-87
2023/10/28 01:54:17;;;;;;;1.67;0.90;;;;;;;;;;5064953;28;20033;-87
2023/10/28 01:57:05;;;;;;;3.13;0.85;;;;;;;;;;5074598;28;20020;-87
2023/10/28 01:59:52;;;;;;;2.97;1.63;;;;;;;;;;5076692;28;20068;-85
2023/10/28 02:02:37;;;;;;;5.78;1.00;;;;;;;;;;5073128;28;20024;-85
2023/10/28 02:05:22;;;;;;;1.60;0.70;;;;;;;;;;5066535;28;20032;-85
2023/10/28 02:08:07;;;;;;;1.73;1.00;;;;;;;;;;5067181;28;20059;-87
2023/10/28 02:10:53;;;;;;;4.18;1.10;;;;;;;;;;5072366;28;20081;-87
2023/10/28 02:13:39;;;;;;;2.72;1.00;;;;;;;;;;5072307;28;20078;-88
2023/10/28 02:16:24;;;;;;;2.55;1.27;;;;;;;;;;5072289;28;20032;-86
2023/10/28 02:19:10;;;;;;;4.38;1.10;;;;;;;;;;5064748;28;20021;-86
2023/10/28 02:21:55;;;;;;;3.95;0.70;;;;;;;;;;5070710;28;20040;-86
2023/10/28 02:24:41;;;;;;;1.35;0.70;;;;;;;;;;5064191;28;20592;-86
2023/10/28 02:27:26;;;;;;;3.85;1.45;;;;;;;;;;5076018;28;20024;-87
2023/10/28 02:30:13;;;;;;;1.65;0.70;;;;;;;;;;5074012;28;20382;-88
2023/10/28 02:32:58;;;;;;;1.48;0.82;;;;;;;;;;5070657;28;20135;-87
2023/10/28 02:35:43;;;;;;;5.38;1.60;;;;;;;;;;5073273;28;20136;-86
2023/10/28 02:38:29;;;;;;;1.90;1.10;;;;;;;;;;5100948;28;20019;-87
2023/10/28 02:41:14;;;;;;;1.95;0.88;;;;;;;;;;5082873;28;20021;-87
2023/10/28 02:44:00;;;;;;;1.63;0.73;;;;;;;;;;5097157;28;20024;-87
2023/10/28 02:46:46;;;;;;;1.55;0.90;;;;;;;;;;5086160;28;20005;-87
2023/10/28 02:49:34;;;;;;;2.55;1.00;;;;;;;;;;5095535;28;20028;-86
2023/10/28 02:52:22;;;;;;;1.90;1.05;;;;;;;;;;5072286;28;20100;-87
2023/10/28 02:55:08;;;;;;;4.55;0.90;;;;;;;;;;5077457;28;20096;-87
2023/10/28 02:57:53;;;;;;;4.43;1.67;;;;;;;;;;5073599;28;20417;-87
2023/10/28 03:00:38;;;;;;;3.05;1.10;;;;;;;;;;5072696;28;20028;-86
2023/10/28 03:03:24;;;;;;;1.15;0.70;;;;;;;;;;5066112;28;20024;-86
2023/10/28 03:06:10;;;;;;;1.58;0.85;;;;;;;;;;5072516;28;20039;-87
2023/10/28 03:08:55;;;;;;;3.55;1.42;;;;;;;;;;5070040;28;20075;-87
2023/10/28 03:11:41;;;;;;;6.22;1.77;;;;;;;;;;5073013;28;20046;-87
2023/10/28 03:14:26;;;;;;;3.53;0.68;;;;;;;;;;5070224;28;20043;-87
2023/10/28 03:17:11;;;;;;;2.28;0.93;;;;;;;;;;5069187;28;20044;-87
2023/10/28 03:19:57;;;;;;;2.38;0.95;;;;;;;;;;5090833;28;20095;-88
2023/10/28 03:22:42;;;;;;;2.70;1.27;;;;;;;;;;5075791;28;20112;-87
2023/10/28 03:25:27;;;;;;;3.70;1.15;;;;;;;;;;5061743;28;20016;-87
2023/10/28 03:28:12;;;;;;;4.45;1.30;;;;;;;;;;5065442;28;20031;-84
2023/10/28 03:30:58;;;;;;;2.80;1.05;;;;;;;;;;5075554;28;20085;-83
2023/10/28 03:33:43;;;;;;;4.40;1.80;;;;;;;;;;5075104;28;20034;-86
2023/10/28 03:36:28;;;;;;;4.47;1.20;;;;;;;;;;5065170;28;20477;-88
2023/10/28 03:39:15;;;;;;;2.53;1.10;;;;;;;;;;5068595;28;20020;-88
2023/10/28 03:42:00;;;;;;;5.20;1.40;;;;;;;;;;5067265;28;20046;-88
2023/10/28 03:44:46;;;;;;;8.30;1.40;;;;;;;;;;5069226;28;20471;-88
2023/10/28 03:47:32;;;;;;;5.72;1.83;;;;;;;;;;5072945;28;20024;-87
2023/10/28 03:50:17;;;;;;;7.85;1.40;;;;;;;;;;5069898;28;20027;-86
2023/10/28 03:53:02;;;;;;;3.72;1.52;;;;;;;;;;5065915;28;20020;-86
2023/10/28 03:55:48;;;;;;;7.07;1.80;;;;;;;;;;5072476;28;20027;-84
2023/10/28 03:58:33;;;;;;;5.43;1.55;;;;;;;;;;5068687;28;20020;-86
2023/10/28 04:01:18;;;;;;;4.32;1.27;;;;;;;;;;5056559;28;20050;-85
2023/10/28 04:04:04;;;;;;;3.60;1.23;;;;;;;;;;5073277;28;20497;-85
2023/10/28 04:06:49;;;;;;;4.25;1.40;;;;;;;;;;5074785;28;20107;-85
2023/10/28 04:09:35;;;;;;;4.57;1.17;;;;;;;;;;5060806;28;20024;-85
2023/10/28 04:12:20;;;;;;;3.97;1.10;;;;;;;;;;5066680;28;20048;-86
2023/10/28 04:15:05;;;;;;;6.55;1.88;;;;;;;;;;5071548;28;20035;-86
2023/10/28 04:17:51;;;;;;;2.08;1.00;;;;;;;;;;5071929;28;20071;-84
2023/10/28 04:20:37;;;;;;;3.00;1.20;;;;;;;;;;5070844;28;20022;-85
2023/10/28 04:23:22;;;;;;;4.00;1.50;;;;;;;;;;5072610;28;20030;-85
2023/10/28 04:26:08;;;;;;;3.80;1.10;;;;;;;;;;5071835;28;20032;-85
2023/10/28 04:28:54;;;;;;;2.40;1.13;;;;;;;;;;5061939;28;20081;-84
2023/10/28 04:31:39;;;;;;;5.10;1.25;;;;;;;;;;5072055;28;20040;-85
2023/10/28 04:34:24;;;;;;;3.13;1.27;;;;;;;;;;5067085;28;20028;-84
2023/10/28 04:37:10;;;;;;;5.50;1.55;;;;;;;;;;5072028;28;20020;-84
2023/10/28 04:39:55;;;;;;;7.35;1.50;;;;;;;;;;5068257;28;20413;-85
2023/10/28 04:42:40;;;;;;;4.47;1.20;;;;;;;;;;5057099;28;20043;-84
2023/10/28 04:45:25;;;;;;;2.83;1.40;;;;;;;;;;5070840;28;20126;-85
2023/10/28 04:48:11;;;;;;;5.45;1.30;;;;;;;;;;5068589;28;20113;-86
2023/10/28 04:50:56;;;;;;;5.18;1.50;;;;;;;;;;5073081;28;20095;-83
2023/10/28 04:53:41;;;;;;;5.72;1.55;;;;;;;;;;5067648;28;20119;-83
2023/10/28 04:56:27;;;;;;;2.40;0.85;;;;;;;;;;5064542;28;20063;-84
2023/10/28 04:59:12;;;;;;;7.82;1.23;;;;;;;;;;5059934;28;20056;-84
2023/10/28 05:01:57;;;;;;;4.50;1.20;;;;;;;;;;5064089;28;20119;-84
2023/10/28 05:04:43;;;;;;;6.03;1.08;;;;;;;;;;5062400;28;20035;-84
2023/10/28 05:07:28;;;;;;;3.45;1.40;;;;;;;;;;5077353;28;20028;-84
2023/10/28 05:10:13;;;;;;;7.47;1.25;;;;;;;;;;5072222;28;20029;-84
2023/10/28 05:12:59;;;;;;;5.70;1.42;;;;;;;;;;5075668;28;20554;-85
2023/10/28 05:15:44;;;;;;;2.58;1.00;;;;;;;;;;5069332;28;20040;-85
2023/10/28 05:18:29;;;;;;;3.72;1.40;;;;;;;;;;5061253;28;20020;-85
2023/10/28 05:21:15;;;;;;;5.25;1.55;;;;;;;;;;5061570;28;20032;-86
2023/10/28 05:24:00;;;;;;;6.60;1.30;;;;;;;;;;5074896;28;20054;-86
2023/10/28 05:26:46;;;;;;;6.82;2.08;;;;;;;;;;5057753;28;20020;-86
2023/10/28 05:29:31;;;;;;;4.55;1.02;;;;;;;;;;5075501;28;20032;-86
2023/10/28 05:32:16;;;;;;;4.90;1.20;;;;;;;;;;5056101;28;20024;-84
2023/10/28 05:35:02;;;;;;;5.63;1.45;;;;;;;;;;5066299;28;20410;-85
2023/10/28 05:37:47;;;;;;;2.72;1.17;;;;;;;;;;5075136;28;20066;-85
2023/10/28 05:40:33;;;;;;;4.82;1.33;;;;;;;;;;5071952;28;20119;-83
2023/10/28 05:43:18;;;;;;;6.68;1.33;;;;;;;;;;5073332;28;20026;-83
2023/10/28 05:46:04;;;;;;;3.80;1.58;;;;;;;;;;5071499;28;20020;-85
2023/10/28 05:48:52;;;;;;;6.28;1.40;;;;;;;;;;5063926;28;20455;-86
2023/10/28 05:51:37;;;;;;;5.40;1.20;;;;;;;;;;5060930;28;20101;-85
2023/10/28 05:54:22;;;;;;;7.68;1.52;;;;;;;;;;5066677;28;20029;-86
2023/10/28 05:57:07;;;;;;;4.85;1.92;;;;;;;;;;5063435;28;20381;-85
2023/10/28 05:59:53;;;;;;;2.67;1.20;;;;;;;;;;5076738;28;20401;-86
2023/10/28 06:02:38;;;;;;;2.38;1.10;;;;;;;;;;5071278;28;20398;-85
2023/10/28 06:05:24;;;;;;;4.05;1.13;;;;;;;;;;5071989;28;20083;-84
2023/10/28 06:08:11;;;;;;;6.45;1.50;;;;;;;;;;5068058;28;20051;-85
2023/10/28 06:10:56;;;;;;;8.07;2.28;;;;;;;;;;5076688;28;20059;-83
2023/10/28 06:13:42;;;;;;;5.40;1.20;;;;;;;;;;5075219;28;20494;-84
2023/10/28 06:16:27;;;;;;;4.28;1.10;;;;;;;;;;5076611;28;20393;-83
2023/10/28 06:19:12;;;;;;;4.53;1.50;;;;;;;;;;5070811;28;20451;-84
2023/10/28 06:21:57;;;;;;;2.40;1.08;;;;;;;;;;5074081;28;20032;-81
2023/10/28 06:24:42;;;;;;;4.57;1.52;;;;;;;;;;5066316;28;20092;-85
2023/10/28 06:27:28;;;;;;;6.93;1.75;;;;;;;;;;5064211;28;20320;-84
2023/10/28 06:30:14;;;;;;;2.70;1.40;;;;;;;;;;5072868;28;20024;-84
2023/10/28 06:33:01;;;;;;;3.38;1.40;;;;;;;;;;5075497;28;20070;-84
2023/10/28 06:35:46;;;;;;;5.32;1.92;;;;;;;;;;5070464;28;20403;-84
2023/10/28 06:38:31;;;;;;;4.00;1.70;;;;;;;;;;5067042;28;20077;-83
2023/10/28 06:41:17;;;;;;;4.40;1.58;;;;;;;;;;5070125;28;20044;-83
2023/10/28 06:44:08;;;;;;;4.95;1.45;;;;;;;;;;5070928;28;20025;-80
2023/10/28 06:46:54;;;;;;;5.90;2.50;;;;;;;;;;5073095;28;20031;-81
2023/10/28 06:49:41;;;;;;;3.63;2.08;;;;;;;;;;5067468;28;20043;-80
2023/10/28 06:52:26;;;;;;;5.72;1.90;;;;;;;;;;5073337;28;20026;-82
2023/10/28 06:55:12;;;;;;;2.95;1.45;;;;;;;;;;5072008;28;20024;-82
2023/10/28 06:58:00;;;;;;;5.10;1.85;;;;;;;;;;5059059;28;20348;-84
2023/10/28 07:00:45;;;;;;;3.72;1.33;;;;;;;;;;5067845;28;20031;-83
2023/10/28 07:03:30;;;;;;;3.17;1.15;;;;;;;;;;5072490;28;20028;-83
2023/10/28 07:06:16;;;;;;;6.35;1.30;;;;;;;;;;5067124;28;20533;-83
2023/10/28 07:09:01;;;;;;;3.22;1.88;;;;;;;;;;5068883;28;20024;-84
2023/10/28 07:11:46;;;;;;;4.32;1.45;;;;;;;;;;5068693;28;20048;-83
2023/10/28 07:14:31;;;;;;;3.45;1.73;;;;;;;;;;5072825;28;20387;-84
2023/10/28 07:17:17;;;;;;;5.95;1.40;;;;;;;;;;5063850;28;20549;-83
2023/10/28 07:20:03;;;;;;;4.30;1.45;;;;;;;;;;5055523;28;20067;-84
2023/10/28 07:22:48;;;;;;;3.33;1.42;;;;;;;;;;5067537;28;20070;-84
2023/10/28 07:25:33;;;;;;;5.35;1.73;;;;;;;;;;5069822;28;20064;-86
2023/10/28 07:28:18;;;;;;;2.40;1.02;;;;;;;;;;5066867;28;20717;-85
2023/10/28 07:31:03;;;;;;;3.72;1.27;;;;;;;;;;5065727;28;20028;-80
2023/10/28 07:33:49;;;;;;;2.70;1.33;;;;;;;;;;5049257;28;20149;-81
2023/10/28 07:36:34;;;;;;;3.03;1.42;;;;;;;;;;5072312;28;20033;-81
2023/10/28 07:39:19;;;;;;;4.93;1.33;;;;;;;;;;5073116;28;20072;-81
2023/10/28 07:42:04;;;;;;;6.40;1.63;;;;;;;;;;5070761;28;20036;-81
2023/10/28 07:44:51;;;;;;;2.70;1.35;;;;;;;;;;5067707;28;20020;-81
2023/10/28 07:47:36;;;;;;;5.45;1.70;;;;;;;;;;5067667;28;20482;-81
2023/10/28 07:50:21;;;;;;;7.60;1.58;;;;;;;;;;5074184;28;20024;-79
2023/10/28 07:53:06;;;;;;;6.80;1.20;;;;;;;;;;5062476;28;20043;-78
2023/10/28 07:55:52;;;;;;;2.55;1.35;;;;;;;;;;5068997;28;20035;-80
2023/10/28 07:58:37;;;;;;;3.58;1.45;;;;;;;;;;5068462;28;20047;-80
2023/10/28 08:01:32;;;;;;;5.30;1.73;;;;;;;;;;5068154;28;20048;-79
2023/10/28 08:04:17;;;;;;;4.75;1.77;;;;;;;;;;5067566;28;20016;-80
2023/10/28 08:07:02;;;;;;;2.70;1.45;;;;;;;;;;5074439;28;20031;-82
2023/10/28 08:09:48;;;;;;;6.32;1.70;;;;;;;;;;5070225;28;20024;-80
2023/10/28 08:12:34;;;;;;;5.95;1.90;;;;;;;;;;5066456;28;20047;-81
2023/10/28 08:15:20;;;;;;;5.88;1.88;;;;;;;;;;5073701;28;20036;-82
2023/10/28 08:18:05;;;;;;;5.38;1.60;;;;;;;;;;5074090;28;20064;-80
2023/10/28 08:20:50;;;;;;;5.30;1.30;;;;;;;;;;5069510;28;20028;-81
2023/10/28 08:23:38;;;;;;;3.13;1.40;;;;;;;;;;5062942;28;20028;-80
2023/10/28 08:26:23;;;;;;;4.97;1.42;;;;;;;;;;5057337;28;20047;-81
2023/10/28 08:29:11;;;;;;;4.43;1.40;;;;;;;;;;5062224;28;20036;-81
2023/10/28 08:31:57;;;;;;;2.25;1.20;;;;;;;;;;5073783;28;20391;-81
2023/10/28 08:34:43;;;;;;;2.83;1.30;;;;;;;;;;5057720;28;20020;-81
2023/10/28 08:37:28;;;;;;;6.50;1.52;;;;;;;;;;5064180;28;20073;-80
2023/10/28 08:40:14;;;;;;;6.90;1.73;;;;;;;;;;5065685;28;20398;-80
2023/10/28 08:42:59;;;;;;;2.67;1.38;;;;;;;;;;5072322;28;20405;-82
2023/10/28 08:45:45;;;;;;;5.47;1.40;;;;;;;;;;5075318;28;20066;-81
2023/10/28 08:48:34;;;;;;;4.45;1.38;;;;;;;;;;5073496;28;20100;-81
2023/10/28 08:51:20;;;;;;;2.30;1.13;;;;;;;;;;5073973;28;20085;-81
2023/10/28 08:54:05;;;;;;;8.30;1.50;;;;;;;;;;5069356;28;20028;-80
2023/10/28 08:56:51;;;;;;;3.65;1.45;;;;;;;;;;5071518;28;20096;-82
2023/10/28 08:59:37;;;;;;;4.70;1.65;;;;;;;;;;5064083;28;20039;-80
2023/10/28 09:02:23;;;;;;;2.95;1.27;;;;;;;;;;5073200;28;20024;-80
2023/10/28 09:05:08;;;;;;;7.20;1.30;;;;;;;;;;5070956;28;20031;-79
2023/10/28 09:07:53;;;;;;;6.00;1.65;;;;;;;;;;5076388;28;20016;-80
2023/10/28 09:10:40;;;;;;;5.20;2.10;;;;;;;;;;5071866;28;20380;-80
2023/10/28 09:13:25;;;;;;;2.05;1.35;;;;;;;;;;5059462;28;20123;-80
2023/10/28 09:16:11;;;;;;;4.28;1.77;;;;;;;;;;5069602;28;20028;-80
2023/10/28 09:18:57;;;;;;;8.73;2.88;;;;;;;;;;5075281;28;20398;-81
2023/10/28 09:21:42;;;;;;;3.33;1.63;;;;;;;;;;5070503;28;20024;-80
2023/10/28 09:24:28;;;;;;;5.50;1.60;;;;;;;;;;5070657;28;20488;-80
2023/10/28 09:27:14;;;;;;;6.20;1.90;;;;;;;;;;5066845;28;20032;-81
2023/10/28 09:30:06;;;;;;;4.68;2.17;;;;;;;;;;5067567;28;20032;-80
2023/10/28 09:32:55;;;;;;;3.58;1.30;;;;;;;;;;5073055;28;21884;-84
2023/10/28 09:35:43;;;;;;;5.43;1.15;;;;;;;;;;5072859;28;20032;-83
2023/10/28 09:38:28;;;;;;;4.03;1.58;;;;;;;;;;5073010;28;20054;-82
2023/10/28 09:41:14;;;;;;;5.82;1.92;;;;;;;;;;5070729;28;20039;-82
2023/10/28 09:44:00;;;;;;;7.53;1.70;;;;;;;;;;5068971;28;20081;-83
2023/10/28 09:46:47;;;;;;;2.83;1.10;;;;;;;;;;5070253;28;20484;-83
2023/10/28 09:49:32;;;;;;;3.58;1.25;;;;;;;;;;5064473;28;20411;-82
2023/10/28 09:52:19;;;;;;;5.57;1.98;;;;;;;;;;5071859;28;20059;-81
2023/10/28 09:55:05;;;;;;;5.65;1.85;;;;;;;;;;5061897;28;20039;-82
2023/10/28 09:57:54;;;;;;;5.50;1.90;;;;;;;;;;5077160;28;20354;-80
2023/10/28 10:00:40;;;;;;;3.95;1.30;;;;;;;;;;5063791;28;20036;-81
2023/10/28 10:03:40;;;;;;;5.30;1.35;;;;;;;;;;5077268;28;20040;-80
2023/10/28 10:06:26;;;;;;;4.47;1.40;;;;;;;;;;5073173;28;20027;-81
2023/10/28 10:09:17;;;;;;;2.70;1.50;;;;;;;;;;5075263;28;20039;-81
2023/10/28 10:12:05;;;;;;;6.10;1.90;;;;;;;;;;5071727;28;20115;-81
2023/10/28 10:14:51;;;;;;;5.13;1.35;;;;;;;;;;5077138;28;20039;-79
2023/10/28 10:17:41;;;;;;;3.08;1.33;;;;;;;;;;5076585;28;20023;-81
2023/10/28 10:20:26;;;;;;;7.28;1.65;;;;;;;;;;5076428;28;20028;-80
2023/10/28 10:23:12;;;;;;;4.40;1.45;;;;;;;;;;5075039;28;20058;-82
2023/10/28 10:26:00;;;;;;;7.18;1.45;;;;;;;;;;5071950;28;20044;-83
2023/10/28 10:28:46;;;;;;;4.47;1.48;;;;;;;;;;5071728;28;20032;-80
2023/10/28 10:31:35;;;;;;;4.97;1.50;;;;;;;;;;5067496;28;20040;-80
2023/10/28 10:34:34;;;;;;;5.47;1.70;;;;;;;;;;5060860;28;20391;-80
2023/10/28 10:37:22;;;;;;;7.50;1.42;;;;;;;;;;5076092;28;20222;-78
2023/10/28 10:40:09;;;;;;;5.37;1.53;;;;;;;;;;5074752;28;20111;-80
2023/10/28 10:42:56;;;;;;;6.72;2.17;;;;;;;;;;5070270;28;20277;-81
2023/10/28 10:45:41;;;;;;;3.60;1.13;;;;;;;;;;5070592;28;20157;-82
2023/10/28 10:48:26;;;;;;;3.70;1.30;;;;;;;;;;5070556;28;20052;-84
2023/10/28 10:51:13;;;;;;;5.97;1.42;;;;;;;;;;5064754;28;20475;-83
2023/10/28 10:53:58;;;;;;;3.65;1.20;;;;;;;;;;5054050;28;20028;-83
2023/10/28 10:56:48;;;;;;;4.03;1.48;;;;;;;;;;5064563;28;20452;-84
2023/10/28 10:59:34;;;;;;;5.85;1.40;;;;;;;;;;5063794;28;20078;-82
2023/10/28 11:02:20;;;;;;;7.18;2.15;;;;;;;;;;5068236;28;20032;-82
2023/10/28 11:05:05;;;;;;;3.30;1.20;;;;;;;;;;5071286;28;20603;-81
2023/10/28 11:07:50;;;;;;;5.32;1.58;;;;;;;;;;5071915;28;20044;-80
2023/10/28 11:10:35;;;;;;;3.35;1.77;;;;;;;;;;5061173;28;20021;-81
2023/10/28 11:13:22;;;;;;;6.03;1.80;;;;;;;;;;5063143;28;20093;-81
2023/10/28 11:16:19;;;;;;;6.15;1.60;;;;;;;;;;5063334;28;20033;-80
2023/10/28 11:19:04;;;;;;;8.80;1.88;;;;;;;;;;5075825;28;20059;-80
2023/10/28 11:21:50;;;;;;;4.93;1.83;;;;;;;;;;5068471;28;20028;-80
2023/10/28 11:24:35;;;;;;;4.38;1.63;;;;;;;;;;5071988;28;20516;-81
2023/10/28 11:27:26;;;;;;;5.28;1.50;;;;;;;;;;5075497;28;20081;-81
2023/10/28 11:30:11;;;;;;;3.42;1.85;;;;;;;;;;5071365;28;20024;-81
2023/10/28 11:32:56;;;;;;;6.38;2.47;;;;;;;;;;5061253;28;20040;-81
2023/10/28 11:35:42;;;;;;;4.25;1.40;;;;;;;;;;5060784;28;20111;-80
2023/10/28 11:38:30;;;;;;;5.30;1.48;;;;;;;;;;5063176;28;20028;-81
2023/10/28 11:41:15;;;;;;;9.90;2.05;;;;;;;;;;5069334;28;20126;-81
2023/10/28 11:44:01;;;;;;;7.80;2.00;;;;;;;;;;5073812;28;20367;-81
2023/10/28 11:46:46;;;;;;;6.20;1.95;;;;;;;;;;5072868;28;20055;-81
2023/10/28 11:49:32;;;;;;;5.90;1.60;;;;;;;;;;5077397;28;20016;-81
2023/10/28 11:52:18;;;;;;;6.43;1.85;;;;;;;;;;5071581;28;20025;-81
2023/10/28 11:55:07;;;;;;;5.78;2.17;;;;;;;;;;5059462;28;20028;-81
2023/10/28 11:57:54;;;;;;;4.57;1.63;;;;;;;;;;5060696;28;20040;-83
2023/10/28 12:00:40;;;;;;;4.47;1.70;;;;;;;;;;5069765;28;20032;-83
2023/10/28 12:03:25;;;;;;;8.38;1.70;;;;;;;;;;5069432;28;20324;-82
2023/10/28 12:06:10;;;;;;;6.47;1.88;;;;;;;;;;5072206;28;20058;-84
2023/10/28 12:08:59;;;;;;;5.68;1.88;;;;;;;;;;5071802;28;20064;-81
2023/10/28 12:11:46;;;;;;;5.40;2.03;;;;;;;;;;5068855;28;20435;-80
2023/10/28 12:14:31;;;;;;;5.05;1.70;;;;;;;;;;5069654;28;20273;-82
2023/10/28 12:17:17;;;;;;;5.18;1.70;;;;;;;;;;5063989;28;20036;-81
2023/10/28 12:20:02;;;;;;;6.57;1.95;;;;;;;;;;5059499;28;20408;-81
2023/10/28 12:22:47;;;;;;;4.10;1.88;;;;;;;;;;5065689;28;20372;-81
2023/10/28 12:25:34;;;;;;;7.85;2.53;;;;;;;;;;5066751;28;20032;-81
2023/10/28 12:28:22;;;;;;;6.28;1.58;;;;;;;;;;5073174;28;20732;-81
2023/10/28 12:31:08;;;;;;;6.00;2.08;;;;;;;;;;5067898;28;20101;-81
2023/10/28 12:33:53;;;;;;;9.77;2.53;;;;;;;;;;5058152;28;20028;-81
2023/10/28 12:36:38;;;;;;;6.65;2.40;;;;;;;;;;5078797;28;20028;-80
2023/10/28 12:39:24;;;;;;;6.30;1.95;;;;;;;;;;5057626;28;20025;-80
2023/10/28 12:42:09;;;;;;;6.47;2.08;;;;;;;;;;5071366;28;20043;-80
2023/10/28 12:44:54;;;;;;;6.75;1.90;;;;;;;;;;5069111;28;20071;-80
2023/10/28 12:47:39;;;;;;;6.15;1.85;;;;;;;;;;5067450;28;20044;-80
2023/10/28 12:50:24;;;;;;;6.18;1.73;;;;;;;;;;5064653;28;20036;-81
2023/10/28 12:53:10;;;;;;;2.72;1.38;;;;;;;;;;5069513;28;20247;-81
2023/10/28 12:55:56;;;;;;;5.07;1.63;;;;;;;;;;5071730;28;20098;-80
2023/10/28 12:58:42;;;;;;;9.38;2.10;;;;;;;;;;5069285;28;20116;-80
2023/10/28 13:01:27;;;;;;;6.05;1.70;;;;;;;;;;5056408;28;20114;-80
2023/10/28 13:04:12;;;;;;;3.50;1.77;;;;;;;;;;5070902;28;20542;-80
2023/10/28 13:06:59;;;;;;;7.53;2.45;;;;;;;;;;5074663;28;20050;-80
2023/10/28 13:09:44;;;;;;;8.80;2.60;;;;;;;;;;5060676;28;20035;-80
2023/10/28 13:12:29;;;;;;;8.75;2.50;;;;;;;;;;5066635;28;20043;-82
2023/10/28 13:15:14;;;;;;;5.82;1.73;;;;;;;;;;5066985;28;20035;-81
2023/10/28 13:18:00;;;;;;;5.55;1.88;;;;;;;;;;5074076;28;20063;-83
2023/10/28 13:20:48;;;;;;;7.25;1.98;;;;;;;;;;5067524;28;20467;-81
2023/10/28 13:23:33;;;;;;;4.25;1.73;;;;;;;;;;5063437;28;20103;-83
2023/10/28 13:26:18;;;;;;;6.38;1.75;;;;;;;;;;5076450;28;20031;-80
2023/10/28 13:29:03;;;;;;;9.07;2.33;;;;;;;;;;5067601;28;20089;-82
2023/10/28 13:31:49;;;;;;;6.20;1.70;;;;;;;;;;5069636;28;20028;-82
2023/10/28 13:34:34;;;;;;;10.43;3.03;;;;;;;;;;5070166;28;20095;-81
2023/10/28 13:37:20;;;;;;;5.55;2.10;;;;;;;;;;5073852;28;20016;-81
2023/10/28 13:40:06;;;;;;;7.25;2.50;;;;;;;;;;5055485;28;20020;-82
2023/10/28 13:42:52;;;;;;;10.57;4.57;;;;;;;;;;5072177;28;20031;-80
2023/10/28 13:45:37;;;;;;;11.27;4.47;;;;;;;;;;5084431;28;20028;-82
2023/10/28 13:48:22;;;;;;;10.57;3.47;;;;;;;;;;5064646;28;20498;-81
2023/10/28 13:51:07;;;;;;;6.43;2.15;;;;;;;;;;5059895;28;20501;-82
2023/10/28 13:53:53;;;;;;;5.15;2.17;;;;;;;;;;5068418;28;20024;-80
2023/10/28 13:56:38;;;;;;;5.18;2.35;;;;;;;;;;5068128;28;20031;-81
2023/10/28 13:59:25;;;;;;;7.47;3.75;;;;;;;;;;5071112;28;20107;-81
2023/10/28 14:02:10;;;;;;;6.95;2.17;;;;;;;;;;5067813;28;20099;-80
2023/10/28 14:04:55;;;;;;;5.97;2.33;;;;;;;;;;5072250;28;20028;-86
2023/10/28 14:07:41;;;;;;;9.65;2.40;;;;;;;;;;5068059;28;20496;-86
2023/10/28 14:10:26;;;;;;;5.65;2.20;;;;;;;;;;5071115;28;20032;-84
2023/10/28 14:13:11;;;;;;;7.50;1.98;;;;;;;;;;5072729;28;20038;-86
2023/10/28 14:15:56;;;;;;;4.45;1.60;;;;;;;;;;5069255;28;20024;-89
2023/10/28 14:18:45;;;;;;;6.88;1.95;;;;;;;;;;5054535;28;20425;-87
2023/10/28 14:21:30;;;;;;;8.00;2.00;;;;;;;;;;5069686;28;20028;-88
2023/10/28 14:24:19;;;;;;;7.88;2.03;;;;;;;;;;5072638;28;20028;-87
2023/10/28 14:27:04;;;;;;;3.60;1.60;;;;;;;;;;5072097;28;20023;-91
2023/10/28 14:29:49;;;;;;;3.55;1.90;;;;;;;;;;5067172;28;20031;-83
2023/10/28 14:32:35;;;;;;;6.88;1.73;;;;;;;;;;5069191;28;20016;-83
2023/10/28 14:35:20;;;;;;;5.57;2.30;;;;;;;;;;5069684;28;20032;-81
2023/10/28 14:38:05;;;;;;;5.78;2.17;;;;;;;;;;5063034;28;20032;-81
2023/10/28 14:40:51;;;;;;;10.02;3.58;;;;;;;;;;5057623;28;20094;-81
2023/10/28 14:43:36;;;;;;;5.65;2.20;;;;;;;;;;5067058;28;20071;-81
2023/10/28 14:46:21;;;;;;;9.18;2.72;;;;;;;;;;5076572;28;20124;-80
2023/10/28 14:49:06;;;;;;;5.38;2.38;;;;;;;;;;5064600;28;20023;-81
2023/10/28 14:51:52;;;;;;;6.07;2.42;;;;;;;;;;5066698;28;20485;-80
2023/10/28 14:54:37;;;;;;;8.20;4.57;;;;;;;;;;5068615;28;20040;-81
2023/10/28 14:57:22;;;;;;;7.63;4.22;;;;;;;;;;5071020;28;20032;-79
2023/10/28 15:00:10;;;;;;;5.90;1.98;;;;;;;;;;5063558;28;20111;-79
2023/10/28 15:02:55;;;;;;;6.63;2.35;;;;;;;;;;5068404;28;20031;-80
2023/10/28 15:05:44;;;;;;;7.25;3.08;;;;;;;;;;5064261;28;20059;-80
2023/10/28 15:08:29;;;;;;;14.73;6.88;;;;;;;;;;5066373;28;20024;-80
2023/10/28 15:11:14;;;;;;;8.80;2.95;;;;;;;;;;5070192;28;20043;-79
2023/10/28 15:13:59;;;;;;;5.75;1.90;;;;;;;;;;5067071;28;20398;-79
2023/10/28 15:16:48;;;;;;;4.88;1.67;;;;;;;;;;5069745;28;21618;-80
2023/10/28 15:19:33;;;;;;;2.00;1.23;;;;;;;;;;5066127;28;20111;-80
2023/10/28 15:22:18;;;;;;;5.28;2.30;;;;;;;;;;5070265;28;20039;-79
2023/10/28 15:25:04;;;;;;;8.38;2.75;;;;;;;;;;5068974;28;20032;-80
2023/10/28 15:27:50;;;;;;;4.80;2.10;;;;;;;;;;5070406;28;20016;-80
2023/10/28 15:30:35;;;;;;;7.30;2.15;;;;;;;;;;5067374;28;20028;-80
2023/10/28 15:33:21;;;;;;;7.95;1.80;;;;;;;;;;5062535;28;20027;-78
2023/10/28 15:36:10;;;;;;;4.55;1.85;;;;;;;;;;5065054;28;20036;-76
2023/10/28 15:38:55;;;;;;;27.67;22.43;;;;;;;;;;5070916;28;20055;-80
2023/10/28 15:41:40;;;;;;;18.73;12.05;;;;;;;;;;5070716;28;20032;-79
2023/10/28 15:44:25;;;;;;;48.85;34.35;;;;;;;;;;5070702;28;20019;-81
2023/10/28 15:47:11;;;;;;;14.00;3.83;;;;;;;;;;5051036;28;20019;-81
2023/10/28 15:49:56;;;;;;;5.57;2.67;;;;;;;;;;5072013;28;20016;-80
2023/10/28 15:52:41;;;;;;;13.57;3.35;;;;;;;;;;5062138;28;20098;-83
2023/10/28 15:55:27;;;;;;;8.35;3.15;;;;;;;;;;5054149;28;20904;-81
2023/10/28 15:58:13;;;;;;;11.32;2.83;;;;;;;;;;5071581;28;20255;-84
2023/10/28 16:00:59;;;;;;;22.10;13.57;;;;;;;;;;5069839;28;20024;-80
2023/10/28 16:03:45;;;;;;;20.23;9.63;;;;;;;;;;5054841;28;20040;-81
2023/10/28 16:06:31;;;;;;;15.43;6.20;;;;;;;;;;5072805;28;20028;-80
2023/10/28 16:09:16;;;;;;;8.98;3.10;;;;;;;;;;5068948;28;20366;-79
2023/10/28 16:12:04;;;;;;;6.93;3.05;;;;;;;;;;5066965;28;20105;-81
2023/10/28 16:14:49;;;;;;;7.30;3.13;;;;;;;;;;5067732;28;20385;-82
2023/10/28 16:17:34;;;;;;;6.40;2.30;;;;;;;;;;5067323;28;20046;-83
2023/10/28 16:20:20;;;;;;;9.60;3.10;;;;;;;;;;5067109;28;20104;-84
2023/10/28 16:23:05;;;;;;;6.65;2.78;;;;;;;;;;5073632;28;20031;-84
2023/10/28 16:25:50;;;;;;;7.57;2.33;;;;;;;;;;5072077;28;20553;-83
2023/10/28 16:28:36;;;;;;;6.43;2.13;;;;;;;;;;5061171;28;20032;-84
2023/10/28 16:31:21;;;;;;;9.10;2.55;;;;;;;;;;5066661;28;20032;-85
2023/10/28 16:34:08;;;;;;;10.32;3.25;;;;;;;;;;5065762;28;20117;-84